Time;durP1;ratioP1;P1;durP2;ratioP2;P2;SDS_P1;SDS_P2;PMS_P1;PMS_P2;Temp;Humidity;BMP_temperature;BMP_pressure;BME280_temperature;BME280_humidity;BME280_pressure;Samples;Min_cycle;Max_cycle;Signal;HPM_P1;HPM_P2
2022/02/28 00:03:06;;;;;;;12.17;10.50;;;;;;;5.62;42.54;99419.47;8352393;28;20239;-64
2022/02/28 00:07:11;;;;;;;12.27;10.17;;;;;;;5.55;42.49;99412.63;8345171;28;20251;-64
2022/02/28 00:11:14;;;;;;;12.87;9.73;;;;;;;5.55;43.00;99412.63;8353376;28;20240;-64
2022/02/28 00:15:19;;;;;;;11.70;9.50;;;;;;;5.45;43.14;99416.91;8353302;28;20242;-64
2022/02/28 00:19:21;;;;;;;10.63;9.23;;;;;;;5.49;43.28;99418.63;8353106;28;20239;-64
2022/02/28 00:23:26;;;;;;;13.00;9.90;;;;;;;5.46;42.95;99418.66;8353141;28;20232;-65
2022/02/28 00:27:29;;;;;;;13.63;9.90;;;;;;;5.41;42.77;99409.22;8358804;28;20247;-64
2022/02/28 00:31:33;;;;;;;11.40;9.30;;;;;;;5.43;42.65;99412.66;8344081;28;20235;-65
2022/02/28 00:35:36;;;;;;;9.23;8.20;;;;;;;5.34;43.54;99410.94;8352660;28;20265;-65
2022/02/28 00:39:40;;;;;;;13.30;9.57;;;;;;;5.34;43.52;99415.22;8352693;28;20236;-65
2022/02/28 00:43:43;;;;;;;12.93;9.73;;;;;;;5.32;43.39;99407.50;8352670;28;20535;-65
2022/02/28 00:47:46;;;;;;;11.67;9.43;;;;;;;5.27;43.44;99410.09;8352023;28;20353;-64
2022/02/28 00:51:49;;;;;;;12.80;10.43;;;;;;;5.18;43.99;99404.06;8351261;28;20263;-64
2022/02/28 00:55:54;;;;;;;11.83;10.07;;;;;;;5.23;43.58;99405.78;8352459;28;20253;-64
2022/02/28 00:59:57;;;;;;;16.23;10.87;;;;;;;5.17;43.82;99403.22;8352097;28;20442;-65
2022/02/28 01:04:00;;;;;;;12.47;10.03;;;;;;;5.04;43.98;99404.91;8351252;28;20235;-64
2022/02/28 01:08:04;;;;;;;13.77;10.90;;;;;;;5.17;43.27;99403.22;8341517;28;20824;-64
2022/02/28 01:12:09;;;;;;;15.13;10.90;;;;;;;5.05;44.01;99406.63;8351401;28;20236;-64
2022/02/28 01:16:12;;;;;;;12.97;10.60;;;;;;;5.12;43.98;99404.91;8351270;28;20307;-64
2022/02/28 01:20:15;;;;;;;12.23;10.33;;;;;;;5.10;44.03;99401.50;8350749;28;20236;-64
2022/02/28 01:24:18;;;;;;;13.00;10.37;;;;;;;5.21;43.45;99393.81;8350848;28;20239;-64
2022/02/28 01:28:22;;;;;;;12.63;11.20;;;;;;;5.02;43.66;99383.50;8350735;28;20232;-64
2022/02/28 01:32:26;;;;;;;13.97;10.60;;;;;;;5.03;43.72;99386.97;8350825;28;20232;-64
2022/02/28 01:36:30;;;;;;;12.80;10.23;;;;;;;5.00;43.86;99387.78;8350371;28;20386;-64
2022/02/28 01:40:33;;;;;;;11.13;9.93;;;;;;;4.94;43.69;99386.94;8350129;28;20232;-65
2022/02/28 01:44:37;;;;;;;12.33;10.07;;;;;;;5.02;43.67;99387.81;8351671;28;20236;-64
2022/02/28 01:48:40;;;;;;;11.00;9.87;;;;;;;4.90;44.01;99386.94;8352145;28;20231;-64
2022/02/28 01:52:44;;;;;;;11.93;9.50;;;;;;;5.03;43.96;99392.09;8352240;28;20228;-64
2022/02/28 01:56:46;;;;;;;12.87;9.83;;;;;;;4.84;43.86;99394.63;8352069;28;20200;-64
2022/02/28 02:00:51;;;;;;;11.20;9.80;;;;;;;4.86;44.41;99382.66;8350757;28;20236;-64
2022/02/28 02:04:54;;;;;;;12.63;10.50;;;;;;;4.83;44.11;99380.06;8348915;28;20573;-64
2022/02/28 02:08:57;;;;;;;11.07;9.90;;;;;;;4.84;43.63;99374.09;8349364;28;20243;-64
2022/02/28 02:13:01;;;;;;;12.20;9.73;;;;;;;4.83;44.14;99371.53;8349354;28;20232;-64
2022/02/28 02:17:07;;;;;;;11.63;9.53;;;;;;;4.78;44.05;99370.66;8349542;28;20232;-64
2022/02/28 02:21:12;;;;;;;12.53;10.40;;;;;;;4.75;44.32;99370.66;8349273;28;20231;-64
2022/02/28 02:25:18;;;;;;;12.63;9.83;;;;;;;4.82;43.89;99365.53;8349071;28;20231;-64
2022/02/28 02:29:21;;;;;;;12.13;10.10;;;;;;;4.75;44.02;99374.09;8349102;28;20232;-65
2022/02/28 02:33:24;;;;;;;10.40;9.27;;;;;;;4.67;44.07;99374.06;8348859;28;20585;-65
2022/02/28 02:37:29;;;;;;;10.77;8.37;;;;;;;4.61;44.57;99370.66;8348825;28;20243;-65
2022/02/28 02:41:32;;;;;;;11.03;8.10;;;;;;;4.59;44.53;99375.78;8348368;28;20270;-64
2022/02/28 02:45:35;;;;;;;9.47;8.00;;;;;;;4.65;44.60;99370.66;8348292;28;20240;-64
2022/02/28 02:49:38;;;;;;;11.37;8.40;;;;;;;4.52;44.26;99365.50;8348600;28;20394;-64
2022/02/28 02:53:43;;;;;;;11.07;8.40;;;;;;;4.46;44.76;99363.75;8348059;28;20236;-64
2022/02/28 02:57:46;;;;;;;9.80;8.23;;;;;;;4.56;44.96;99357.78;8348089;28;20239;-64
2022/02/28 03:01:49;;;;;;;10.47;8.30;;;;;;;4.55;44.68;99362.91;8348053;28;20231;-64
2022/02/28 03:05:52;;;;;;;11.17;8.40;;;;;;;4.46;44.95;99354.34;8347975;28;20224;-64
2022/02/28 03:09:58;;;;;;;10.23;8.30;;;;;;;4.41;44.82;99355.19;8347902;28;20254;-64
2022/02/28 03:14:01;;;;;;;9.67;8.33;;;;;;;4.44;44.65;99356.06;8347562;28;20228;-64
2022/02/28 03:18:03;;;;;;;11.90;7.80;;;;;;;4.51;44.95;99359.47;8347783;28;20420;-64
2022/02/28 03:22:06;;;;;;;9.37;8.37;;;;;;;4.46;44.72;99356.91;8347587;28;20239;-64
2022/02/28 03:26:11;;;;;;;9.80;8.10;;;;;;;4.35;44.90;99363.72;8347623;28;20235;-64
2022/02/28 03:30:14;;;;;;;13.53;8.00;;;;;;;4.33;45.17;99365.44;8347726;28;20235;-64
2022/02/28 03:34:17;;;;;;;11.77;8.63;;;;;;;4.33;44.79;99359.44;8347838;28;20245;-64
2022/02/28 03:38:20;;;;;;;10.90;8.23;;;;;;;4.33;45.18;99359.44;8347852;28;20227;-64
2022/02/28 03:42:24;;;;;;;10.67;8.63;;;;;;;4.29;45.25;99361.16;8347705;28;20227;-64
2022/02/28 03:46:27;;;;;;;10.80;8.67;;;;;;;4.22;45.14;99352.56;8347543;28;20411;-64
2022/02/28 03:50:30;;;;;;;11.27;8.70;;;;;;;4.13;45.40;99351.69;8347463;28;20254;-64
2022/02/28 03:54:34;;;;;;;10.47;8.67;;;;;;;4.25;45.68;99347.44;8346964;28;20228;-64
2022/02/28 03:58:39;;;;;;;11.27;9.13;;;;;;;4.24;45.52;99350.00;8347904;28;20228;-65
2022/02/28 04:02:42;;;;;;;11.80;9.40;;;;;;;4.18;45.91;99355.97;8347093;28;20245;-64
2022/02/28 04:06:47;;;;;;;10.97;8.47;;;;;;;4.07;45.58;99358.50;8347730;28;20231;-64
2022/02/28 04:10:50;;;;;;;11.40;8.67;;;;;;;4.05;45.46;99355.06;8347288;28;20274;-64
2022/02/28 04:14:55;;;;;;;10.67;8.43;;;;;;;4.06;46.03;99359.34;8347133;28;20251;-64
2022/02/28 04:18:58;;;;;;;9.40;8.10;;;;;;;4.00;46.21;99356.78;8347385;28;20228;-64
2022/02/28 04:23:01;;;;;;;11.37;8.27;;;;;;;4.01;45.73;99358.47;8346515;28;20228;-64
2022/02/28 04:27:04;;;;;;;11.73;8.57;;;;;;;3.95;46.00;99357.59;8347745;28;20240;-64
2022/02/28 04:31:09;;;;;;;10.03;8.63;;;;;;;3.96;45.91;99356.72;8352513;28;20232;-64
2022/02/28 04:35:12;;;;;;;11.27;8.90;;;;;;;3.92;46.10;99354.16;8352728;28;20228;-64
2022/02/28 04:39:15;;;;;;;11.93;8.93;;;;;;;3.90;45.87;99353.31;8352385;28;20228;-64
2022/02/28 04:43:18;;;;;;;11.33;8.70;;;;;;;4.03;45.86;99361.03;8352583;28;20243;-64
2022/02/28 04:47:22;;;;;;;11.73;9.30;;;;;;;3.97;46.24;99363.59;8352235;28;20565;-64
2022/02/28 04:51:26;;;;;;;10.50;9.27;;;;;;;3.85;46.10;99364.38;8352095;28;20247;-64
2022/02/28 04:55:29;;;;;;;12.20;9.67;;;;;;;3.81;46.18;99366.06;8352047;28;20235;-64
2022/02/28 04:59:33;;;;;;;14.70;10.03;;;;;;;3.78;46.49;99362.63;8351499;28;20223;-65
2022/02/28 05:03:38;;;;;;;13.57;9.27;;;;;;;3.79;46.22;99367.78;8351650;28;20243;-64
2022/02/28 05:07:41;;;;;;;13.30;9.67;;;;;;;3.77;46.09;99363.47;8351964;28;20233;-65
2022/02/28 05:11:44;;;;;;;12.17;8.93;;;;;;;3.77;45.96;99364.34;8351738;28;20546;-64
2022/02/28 05:15:47;;;;;;;13.70;9.60;;;;;;;3.80;45.75;99368.63;8351644;28;20239;-64
2022/02/28 05:19:51;;;;;;;13.03;9.97;;;;;;;3.71;45.85;99364.28;8351296;28;20232;-64
2022/02/28 05:23:54;;;;;;;11.37;9.03;;;;;;;3.77;46.15;99363.47;8351495;28;20240;-64
2022/02/28 05:27:57;;;;;;;13.23;9.30;;;;;;;3.59;46.34;99371.91;8351432;28;20243;-64
2022/02/28 05:32:00;;;;;;;12.93;9.63;;;;;;;3.62;46.32;99371.94;8351194;28;20251;-64
2022/02/28 05:36:05;;;;;;;12.83;10.00;;;;;;;3.75;46.42;99366.03;8350716;28;20224;-64
2022/02/28 05:40:10;;;;;;;12.83;10.00;;;;;;;3.69;46.58;99372.00;8350818;28;20231;-64
2022/02/28 05:44:13;;;;;;;11.17;9.93;;;;;;;3.68;46.18;99370.25;8351122;28;20526;-64
2022/02/28 05:48:16;;;;;;;12.93;10.10;;;;;;;3.64;46.58;99371.09;8350663;28;20296;-64
2022/02/28 05:52:21;;;;;;;11.27;9.90;;;;;;;3.63;46.21;99365.97;8348354;28;20228;-68
2022/02/28 05:56:24;;;;;;;11.50;9.67;;;;;;;3.60;46.20;99374.50;8345982;28;20239;-64
2022/02/28 06:00:27;;;;;;;11.90;9.90;;;;;;;3.56;46.69;99374.44;8349704;28;20531;-64
2022/02/28 06:04:30;;;;;;;15.60;10.27;;;;;;;3.53;46.39;99371.03;8349497;28;20232;-64
2022/02/28 06:08:34;;;;;;;12.53;10.80;;;;;;;3.65;45.76;99375.34;8349217;28;20220;-64
2022/02/28 06:12:38;;;;;;;12.90;10.53;;;;;;;3.72;45.68;99376.28;8349315;28;20244;-64
2022/02/28 06:17:00;;;;;;;10.83;9.73;;;;;;;3.65;45.84;99375.34;8349380;28;20228;-64
2022/02/28 06:21:04;;;;;;;12.90;10.77;;;;;;;3.77;45.73;99383.97;8349437;28;20228;-64
2022/02/28 06:25:09;;;;;;;11.23;9.97;;;;;;;3.49;46.40;99396.63;8348428;28;20228;-64
2022/02/28 06:29:12;;;;;;;13.07;10.83;;;;;;;3.63;46.26;99395.00;8349168;28;20236;-64
2022/02/28 06:33:15;;;;;;;12.57;10.50;;;;;;;3.91;46.14;99396.00;8349058;28;20228;-64
2022/02/28 06:37:18;;;;;;;14.57;10.60;;;;;;;4.27;45.03;99399.59;8348678;28;20228;-64
2022/02/28 06:41:22;;;;;;;13.30;10.60;;;;;;;4.52;44.85;99406.53;8348405;28;20232;-64
2022/02/28 06:45:26;;;;;;;12.43;10.80;;;;;;;4.87;44.18;99411.75;8348356;28;20262;-64
2022/02/28 06:49:29;;;;;;;14.10;10.97;;;;;;;5.29;43.63;99417.78;8347353;28;20231;-64
2022/02/28 06:53:32;;;;;;;15.13;10.70;;;;;;;5.63;42.87;99417.75;8346866;28;20413;-65
2022/02/28 06:57:36;;;;;;;13.57;10.47;;;;;;;5.73;42.93;99426.31;8347071;28;20531;-64
2022/02/28 07:01:40;;;;;;;13.57;10.90;;;;;;;5.74;42.59;99426.31;8344901;28;20566;-64
2022/02/28 07:05:47;;;;;;;13.13;10.37;;;;;;;6.06;42.61;99430.56;8347129;28;20551;-65
2022/02/28 07:09:51;;;;;;;13.60;11.07;;;;;;;6.29;42.45;99427.94;8347087;28;20250;-65
2022/02/28 07:13:58;;;;;;;11.80;10.07;;;;;;;6.52;41.93;99427.81;8344152;28;20244;-66
2022/02/28 07:18:02;;;;;;;12.40;10.07;;;;;;;6.53;41.83;99433.81;8346944;28;20235;-64
2022/02/28 07:22:05;;;;;;;11.93;10.43;;;;;;;6.92;41.40;99430.19;8346087;28;20235;-65
2022/02/28 07:26:08;;;;;;;12.93;10.30;;;;;;;7.04;41.23;99432.69;8346370;28;20251;-65
2022/02/28 07:30:13;;;;;;;11.97;10.63;;;;;;;7.15;41.07;99431.75;8342809;28;20230;-65
2022/02/28 07:34:17;;;;;;;13.27;10.40;;;;;;;7.38;40.99;99437.59;8346776;28;20464;-65
2022/02/28 07:38:20;;;;;;;14.60;10.60;;;;;;;7.55;40.91;99437.44;8346845;28;20232;-65
2022/02/28 07:42:23;;;;;;;13.50;10.17;;;;;;;7.83;40.75;99445.78;8347332;28;20238;-65
2022/02/28 07:46:28;;;;;;;12.00;10.70;;;;;;;8.08;40.53;99458.44;8346968;28;20411;-65
2022/02/28 08:12:01;;;;;;;17.70;11.33;;;;;;;9.97;35.95;99442.00;8334075;28;20293;-65
2022/02/28 08:16:04;;;;;;;17.57;12.80;;;;;;;9.71;35.51;99448.50;8350337;28;20235;-65
2022/02/28 08:20:08;;;;;;;20.70;12.83;;;;;;;10.30;35.20;99443.13;8352515;28;20228;-66
2022/02/28 08:24:11;;;;;;;14.23;12.10;;;;;;;10.13;34.34;99440.84;8352177;28;20228;-65
2022/02/28 08:28:16;;;;;;;16.57;12.57;;;;;;;10.32;35.10;99436.19;8352034;28;20225;-66
2022/02/28 08:32:19;;;;;;;18.63;12.50;;;;;;;10.26;33.71;99438.88;8351777;28;20387;-65
2022/02/28 08:36:22;;;;;;;12.40;11.00;;;;;;;11.34;33.59;99429.59;8349240;28;20228;-65
2022/02/28 08:40:25;;;;;;;17.60;13.00;;;;;;;11.46;32.19;99425.91;8351690;28;20228;-65
2022/02/28 08:44:33;;;;;;;15.10;12.00;;;;;;;11.67;32.10;99424.50;8351374;28;20224;-66
2022/02/28 08:48:36;;;;;;;15.77;12.07;;;;;;;11.93;30.90;99439.41;8351087;28;20242;-66
2022/02/28 08:52:39;;;;;;;15.30;12.13;;;;;;;10.96;31.75;99443.47;8350865;28;20236;-66
2022/02/28 08:56:42;;;;;;;12.43;10.67;;;;;;;12.30;30.41;99441.03;8349015;28;20232;-66
2022/02/28 09:00:46;;;;;;;12.77;11.30;;;;;;;12.87;29.71;99441.09;8350615;28;20224;-65
2022/02/28 09:04:49;;;;;;;12.63;10.60;;;;;;;11.97;30.32;99447.13;8318953;28;20243;-65
2022/02/28 09:08:52;;;;;;;15.40;11.37;;;;;;;12.55;29.93;99447.28;8318541;28;20229;-66
2022/02/28 09:12:55;;;;;;;14.37;11.57;;;;;;;12.24;30.13;99454.19;8317971;28;20240;-65
2022/02/28 09:17:00;;;;;;;16.30;13.20;;;;;;;13.05;29.84;99443.16;8318415;28;20424;-66
2022/02/28 09:21:03;;;;;;;13.73;10.80;;;;;;;13.52;28.88;99445.19;8330006;28;20224;-65
2022/02/28 09:25:07;;;;;;;16.97;11.47;;;;;;;13.52;28.65;99452.13;8350003;28;20425;-65
2022/02/28 09:29:10;;;;;;;13.43;7.90;;;;;;;14.42;51.40;99450.75;8350119;28;20238;-61
2022/02/28 09:33:14;;;;;;;16.37;10.87;;;;;;;15.39;37.00;99447.94;8349841;28;20288;-58
2022/02/28 09:37:17;;;;;;;12.73;10.13;;;;;;;15.82;32.35;99438.34;8350405;28;20239;-58
2022/02/28 09:41:21;;;;;;;14.47;11.20;;;;;;;16.11;30.58;99436.25;8350488;28;20518;-58
2022/02/28 09:45:25;;;;;;;18.60;11.27;;;;;;;15.88;26.39;99439.00;8334254;28;20232;-64
2022/02/28 09:49:30;;;;;;;17.60;11.30;;;;;;;15.47;26.74;99441.56;8350346;28;20239;-58
2022/02/28 09:53:33;;;;;;;14.67;11.37;;;;;;;15.91;26.19;99447.53;8349993;28;20243;-59
2022/02/28 09:57:36;;;;;;;19.47;11.23;;;;;;;15.38;25.87;99450.59;8350385;28;20263;-61
2022/02/28 10:01:44;;;;;;;13.93;10.13;;;;;;;15.82;25.65;99450.53;8350134;28;20236;-60
2022/02/28 10:05:49;;;;;;;11.83;9.80;;;;;;;16.15;25.11;99457.88;8349492;28;20251;-59
2022/02/28 10:10:04;;;;;;;16.70;11.20;;;;;;;15.65;24.71;99451.25;8349618;28;20235;-59
2022/02/28 10:14:10;;;;;;;43.70;12.67;;;;;;;15.71;25.66;99450.97;8349581;28;20236;-59
2022/02/28 10:18:13;;;;;;;18.97;11.47;;;;;;;16.41;24.67;99443.63;8348170;28;20730;-59
2022/02/28 10:22:17;;;;;;;12.33;10.47;;;;;;;15.64;25.29;99439.94;8349286;28;20238;-59
2022/02/28 10:26:22;;;;;;;14.03;11.40;;;;;;;16.21;24.75;99455.00;8348419;28;20386;-59
2022/02/28 10:30:30;;;;;;;13.57;10.60;;;;;;;15.62;24.70;99439.16;8349507;28;20231;-59
2022/02/28 10:35:59;;;;;;;11.20;9.77;;;;;;;16.05;24.42;99446.09;8347970;28;20299;-60
2022/02/28 10:39:27;;;;;;;10.57;9.27;;;;;;;16.46;24.18;99433.81;8347412;28;20303;-59
2022/02/28 10:43:35;;;;;;;13.10;8.77;;;;;;;16.48;23.87;99429.38;8346915;28;20290;-60
2022/02/28 10:47:45;;;;;;;11.17;9.03;;;;;;;16.07;23.46;99429.47;8347549;28;20238;-59
2022/02/28 10:51:51;;;;;;;10.70;9.00;;;;;;;16.54;23.76;99418.63;8348309;28;20238;-60
2022/02/28 10:55:55;;;;;;;11.10;8.93;;;;;;;16.56;24.18;99415.94;8348165;28;20232;-60
2022/02/28 11:00:05;;;;;;;12.70;10.03;;;;;;;15.96;23.69;99419.47;8348010;28;20402;-60
2022/02/28 11:04:36;;;;;;;11.00;9.43;;;;;;;16.05;24.04;99420.84;8348118;28;20234;-60
2022/02/28 11:08:42;;;;;;;9.73;8.13;;;;;;;15.87;23.70;99406.81;8348095;28;20443;-60
2022/02/28 11:12:47;;;;;;;11.00;9.03;;;;;;;15.30;24.21;99403.91;8347540;28;20558;-60
2022/02/28 11:16:50;;;;;;;11.30;9.03;;;;;;;14.26;24.63;99396.59;8347665;28;20236;-60
2022/02/28 11:20:55;;;;;;;9.63;8.50;;;;;;;14.75;24.47;99391.31;8347790;28;20228;-60
2022/02/28 11:24:58;;;;;;;11.63;7.67;;;;;;;14.47;23.75;99388.91;8347710;28;20424;-60
2022/02/28 11:29:03;;;;;;;11.17;8.23;;;;;;;15.05;24.63;99384.03;8346473;28;20262;-60
2022/02/28 11:33:08;;;;;;;10.03;8.20;;;;;;;13.96;24.41;99376.88;8347270;28;20232;-60
2022/02/28 11:37:12;;;;;;;9.80;8.80;;;;;;;14.58;24.37;99372.88;8350037;28;20232;-59
2022/02/28 11:41:18;;;;;;;10.33;8.53;;;;;;;14.11;25.99;99378.06;8352961;28;20415;-62
2022/02/28 11:45:24;;;;;;;10.80;8.27;;;;;;;14.71;25.91;99368.88;8352591;28;20301;-60
2022/02/28 11:49:27;;;;;;;9.70;8.40;;;;;;;13.38;25.32;99366.72;8351523;28;20228;-60
2022/02/28 11:53:38;;;;;;;11.37;8.60;;;;;;;14.00;26.03;99350.66;8353580;28;20231;-60
2022/02/28 11:57:55;;;;;;;9.70;8.67;;;;;;;14.41;25.29;99342.19;8353617;28;20234;-59
2022/02/28 12:02:03;;;;;;;10.80;8.40;;;;;;;14.53;25.36;99339.13;8352766;28;20228;-60
2022/02/28 12:06:09;;;;;;;9.43;8.20;;;;;;;14.68;25.95;99347.28;8353531;28;20232;-61
2022/02/28 12:10:13;;;;;;;12.20;8.30;;;;;;;14.81;25.44;99332.84;8353201;28;20234;-60
2022/02/28 12:14:16;;;;;;;11.37;8.97;;;;;;;14.17;25.16;99333.56;8353068;28;20540;-60
2022/02/28 12:18:21;;;;;;;15.50;8.13;;;;;;;14.24;25.15;99319.38;8352932;28;20232;-60
2022/02/28 12:22:24;;;;;;;10.90;8.40;;;;;;;14.07;24.81;99322.63;8351875;28;20435;-59
2022/02/28 12:26:27;;;;;;;21.13;9.10;;;;;;;14.10;25.18;99319.91;8352468;28;20243;-60
2022/02/28 12:30:48;;;;;;;13.33;9.60;;;;;;;14.01;24.58;99317.63;8352662;28;20228;-60
2022/02/28 12:34:58;;;;;;;10.03;8.67;;;;;;;14.31;24.59;99307.81;8351834;28;20244;-59
2022/02/28 12:39:06;;;;;;;12.93;7.97;;;;;;;13.97;24.39;99314.28;8352290;28;20407;-60
2022/02/28 12:43:18;;;;;;;10.13;8.63;;;;;;;13.97;25.30;99308.25;8351880;28;20232;-60
2022/02/28 12:47:21;;;;;;;10.10;9.00;;;;;;;14.37;25.64;99310.19;8351185;28;20343;-59
2022/02/28 12:51:27;;;;;;;10.07;8.57;;;;;;;14.30;25.06;99308.75;8352171;28;20254;-59
2022/02/28 12:55:31;;;;;;;9.47;8.47;;;;;;;13.96;23.76;99314.38;8352130;28;20232;-59
2022/02/28 12:59:34;;;;;;;14.00;9.20;;;;;;;13.87;24.26;99305.13;8343544;28;20399;-59
2022/02/28 13:03:38;;;;;;;9.63;7.87;;;;;;;14.90;24.94;99301.19;8350601;28;20236;-59
2022/02/28 13:07:42;;;;;;;9.33;7.70;;;;;;;14.44;23.77;99298.63;8351529;28;20242;-60
2022/02/28 13:11:47;;;;;;;11.37;8.30;;;;;;;14.40;24.35;99298.81;8352015;28;20232;-59
2022/02/28 13:15:58;;;;;;;9.33;7.93;;;;;;;14.75;23.10;99300.03;8350615;28;20240;-59
2022/02/28 13:20:05;;;;;;;9.20;7.77;;;;;;;15.07;24.15;99297.03;8351277;28;20228;-59
2022/02/28 13:24:12;;;;;;;9.30;7.70;;;;;;;15.22;23.68;99289.41;8351352;28;20252;-59
2022/02/28 13:28:15;;;;;;;7.90;7.10;;;;;;;15.15;22.38;99293.19;8351634;28;20255;-59
2022/02/28 13:32:19;;;;;;;9.83;7.43;;;;;;;15.24;21.68;99292.81;8351295;28;20227;-59
2022/02/28 13:36:22;;;;;;;8.83;7.17;;;;;;;14.59;21.88;99293.75;8350908;28;20565;-59
2022/02/28 13:40:27;;;;;;;9.37;7.63;;;;;;;14.92;22.39;99277.66;8349896;28;20224;-59
2022/02/28 13:44:35;;;;;;;8.80;7.07;;;;;;;15.16;22.11;99268.81;8348604;28;20542;-60
2022/02/28 13:48:38;;;;;;;9.87;7.33;;;;;;;15.45;23.00;99272.75;8350183;28;20235;-60
2022/02/28 13:52:41;;;;;;;9.23;6.47;;;;;;;15.41;22.72;99263.38;8347555;28;20240;-60
2022/02/28 13:56:51;;;;;;;7.93;6.93;;;;;;;14.87;23.26;99275.25;8349133;28;20236;-60
2022/02/28 14:00:57;;;;;;;7.60;6.57;;;;;;;15.49;22.72;99262.19;8348694;28;20242;-59
2022/02/28 14:05:07;;;;;;;9.70;7.60;;;;;;;14.73;21.91;99264.53;8350139;28;20392;-59
2022/02/28 14:09:10;;;;;;;8.70;6.53;;;;;;;14.68;24.07;99262.13;8349526;28;20463;-59
2022/02/28 14:13:17;;;;;;;8.77;7.23;;;;;;;14.91;22.86;99262.91;8349609;28;20235;-60
2022/02/28 14:17:19;;;;;;;12.20;7.47;;;;;;;14.94;23.33;99261.03;8349733;28;20232;-58
2022/02/28 14:21:26;;;;;;;13.00;7.10;;;;;;;15.29;22.49;99247.38;8349021;28;20254;-58
2022/02/28 14:25:30;;;;;;;8.60;7.33;;;;;;;14.97;22.12;99250.47;8349490;28;20513;-58
2022/02/28 14:29:36;;;;;;;8.47;7.27;;;;;;;15.01;21.89;99251.19;8340370;28;20234;-59
2022/02/28 14:33:46;;;;;;;9.80;7.00;;;;;;;14.84;22.52;99244.91;8349525;28;20411;-59
2022/02/28 14:37:52;;;;;;;11.47;7.27;;;;;;;14.91;23.41;99242.91;8349028;28;20236;-58
2022/02/28 14:41:54;;;;;;;9.97;6.77;;;;;;;15.27;23.52;99226.59;8349010;28;20235;-58
2022/02/28 14:45:59;;;;;;;10.63;7.50;;;;;;;15.34;22.60;99227.16;8348984;28;20232;-58
2022/02/28 14:50:02;;;;;;;9.87;7.00;;;;;;;15.13;22.92;99235.00;8348828;28;20238;-59
2022/02/28 14:54:27;;;;;;;9.73;7.60;;;;;;;14.44;22.60;99236.06;8344722;28;20224;-59
2022/02/28 14:58:30;;;;;;;7.80;6.80;;;;;;;14.37;23.87;99241.59;8347062;28;20227;-58
2022/02/28 15:02:34;;;;;;;7.37;6.57;;;;;;;14.66;23.64;99237.88;8347315;28;20219;-59
2022/02/28 15:06:37;;;;;;;9.33;7.10;;;;;;;13.62;23.20;99229.69;8348497;28;20561;-59
2022/02/28 15:10:42;;;;;;;10.17;6.53;;;;;;;14.53;24.11;99234.03;8347345;28;20238;-59
2022/02/28 15:14:45;;;;;;;8.40;6.37;;;;;;;14.39;23.71;99229.34;8347812;28;20311;-59
2022/02/28 15:18:51;;;;;;;8.83;6.47;;;;;;;14.52;23.97;99235.75;8347784;28;20430;-59
2022/02/28 15:22:55;;;;;;;7.30;6.03;;;;;;;14.50;23.25;99228.94;8347694;28;20239;-59
2022/02/28 15:27:01;;;;;;;8.60;6.30;;;;;;;14.26;23.76;99224.63;8347422;28;20244;-59
2022/02/28 15:31:05;;;;;;;8.30;6.23;;;;;;;14.37;24.06;99218.97;8347751;28;20243;-59
2022/02/28 15:35:11;;;;;;;9.10;6.10;;;;;;;14.41;23.88;99212.75;8347600;28;20524;-59
2022/02/28 15:39:14;;;;;;;9.30;6.80;;;;;;;14.20;24.29;99216.19;8347571;28;20231;-59
2022/02/28 15:43:17;;;;;;;8.13;6.60;;;;;;;13.87;23.88;99209.63;8347526;28;20227;-58
2022/02/28 15:47:20;;;;;;;11.27;6.60;;;;;;;13.70;24.33;99209.41;8346981;28;20569;-58
2022/02/28 15:51:25;;;;;;;15.27;6.33;;;;;;;13.48;23.89;99205.00;8347348;28;20232;-59
2022/02/28 15:55:31;;;;;;;9.20;6.27;;;;;;;13.39;24.13;99204.50;8346818;28;20236;-58
2022/02/28 15:59:40;;;;;;;11.27;5.97;;;;;;;13.28;24.92;99200.47;8346567;28;20235;-59
2022/02/28 16:03:44;;;;;;;11.10;7.50;;;;;;;12.84;25.33;99205.47;8347060;28;20529;-59
2022/02/28 16:07:50;;;;;;;15.60;11.97;;;;;;;12.91;25.29;99200.94;8347053;28;20297;-59
2022/02/28 16:11:53;;;;;;;12.67;8.50;;;;;;;12.65;26.38;99204.41;8347013;28;20291;-59
2022/02/28 16:15:57;;;;;;;8.50;6.57;;;;;;;12.58;26.83;99197.69;8346710;28;20531;-58
2022/02/28 16:20:00;;;;;;;6.93;5.63;;;;;;;12.59;26.46;99205.44;8346955;28;20235;-58
2022/02/28 16:24:05;;;;;;;11.43;5.80;;;;;;;12.41;26.13;99204.28;8349358;28;20231;-59
2022/02/28 16:28:08;;;;;;;7.03;5.70;;;;;;;12.26;26.77;99209.97;8352520;28;20236;-58
2022/02/28 16:32:11;;;;;;;9.77;5.90;;;;;;;12.21;27.39;99204.94;8352685;28;20232;-58
2022/02/28 16:36:17;;;;;;;8.60;6.23;;;;;;;12.21;27.36;99209.28;8352606;28;20231;-58
2022/02/28 16:40:21;;;;;;;10.37;6.30;;;;;;;12.04;28.00;99218.44;8352555;28;20232;-58
2022/02/28 16:44:26;;;;;;;9.93;6.27;;;;;;;12.13;28.34;99230.28;8352161;28;20286;-58
2022/02/28 16:48:29;;;;;;;7.03;5.77;;;;;;;11.99;28.44;99222.06;8352297;28;20443;-58
2022/02/28 16:52:33;;;;;;;8.30;6.33;;;;;;;11.86;28.19;99227.59;8351656;28;20224;-59
2022/02/28 16:56:38;;;;;;;12.20;5.93;;;;;;;11.78;27.96;99220.91;8351920;28;20243;-59
2022/02/28 17:00:42;;;;;;;9.40;6.60;;;;;;;11.71;29.32;99221.09;8351597;28;20291;-58
2022/02/28 17:04:45;;;;;;;10.50;6.43;;;;;;;11.68;29.07;99228.13;8319021;28;20469;-58
2022/02/28 17:08:48;;;;;;;12.00;6.70;;;;;;;11.54;29.33;99228.53;8318967;28;20311;-59
2022/02/28 17:12:54;;;;;;;10.30;6.60;;;;;;;11.51;29.56;99239.81;8319097;28;20236;-58
2022/02/28 17:16:56;;;;;;;9.50;6.73;;;;;;;11.44;30.79;99243.50;8318891;28;20259;-58
2022/02/28 17:21:00;;;;;;;12.77;7.93;;;;;;;11.32;30.37;99249.00;8318765;28;20248;-58
2022/02/28 17:25:03;;;;;;;13.93;10.77;;;;;;;11.05;30.04;99243.66;8318484;28;20229;-58
2022/02/28 17:29:07;;;;;;;15.03;11.07;;;;;;;11.08;29.36;99247.91;8318632;28;20244;-58
2022/02/28 17:33:10;;;;;;;12.27;8.73;;;;;;;10.98;29.78;99262.84;8317865;28;20228;-58
2022/02/28 17:37:14;;;;;;;10.43;7.97;;;;;;;10.84;29.60;99260.59;8317797;28;20233;-58
2022/02/28 17:41:17;;;;;;;13.60;8.33;;;;;;;10.60;29.39;99264.63;8318228;28;20232;-58
2022/02/28 17:45:21;;;;;;;12.93;7.63;;;;;;;10.75;29.28;99268.59;8348475;28;20255;-58
2022/02/28 17:49:27;;;;;;;8.93;7.43;;;;;;;10.69;28.66;99267.00;8350448;28;20231;-58
2022/02/28 17:53:30;;;;;;;12.97;9.57;;;;;;;10.59;28.28;99273.31;8350175;28;20239;-58
2022/02/28 17:57:37;;;;;;;9.80;7.47;;;;;;;10.55;28.88;99282.03;8350006;28;20265;-58
2022/02/28 18:01:41;;;;;;;11.20;5.60;;;;;;;10.05;26.42;99287.44;8349384;28;20228;-60
2022/02/28 18:05:45;;;;;;;9.77;8.17;;;;;;;9.93;28.48;99293.69;8349370;28;20236;-58
2022/02/28 18:09:48;;;;;;;11.00;8.67;;;;;;;9.89;28.00;99291.22;8349378;28;20238;-58
2022/02/28 18:13:51;;;;;;;12.17;7.97;;;;;;;9.83;27.79;99296.50;8350024;28;20240;-58
2022/02/28 18:17:55;;;;;;;10.43;7.13;;;;;;;9.06;27.88;99309.09;8349514;28;20251;-58
2022/02/28 18:21:59;;;;;;;9.90;7.70;;;;;;;8.28;29.85;99318.88;8349698;28;20227;-58
2022/02/28 18:26:02;;;;;;;13.43;9.03;;;;;;;8.63;29.92;99317.53;8348894;28;20240;-58
2022/02/28 18:30:06;;;;;;;14.83;9.30;;;;;;;9.08;29.81;99309.94;8349101;28;20232;-58
2022/02/28 18:34:13;;;;;;;17.40;10.20;;;;;;;7.79;31.79;99312.59;8348450;28;20244;-58
2022/02/28 18:38:17;;;;;;;13.63;9.93;;;;;;;7.88;32.11;99314.22;8348550;28;20252;-57
2022/02/28 18:42:20;;;;;;;13.73;9.47;;;;;;;7.70;32.43;99322.16;8348931;28;20236;-57
2022/02/28 18:46:23;;;;;;;15.03;10.07;;;;;;;7.49;32.37;99331.81;8347181;28;20228;-58
2022/02/28 18:50:28;;;;;;;14.80;10.63;;;;;;;7.20;32.83;99329.53;8348378;28;20322;-58
2022/02/28 18:54:31;;;;;;;18.73;11.93;;;;;;;6.92;32.52;99340.03;8347925;28;20224;-59
2022/02/28 18:58:35;;;;;;;21.43;12.07;;;;;;;6.53;44.45;99338.59;8347416;28;20240;-57
2022/02/28 19:02:38;;;;;;;16.83;11.93;;;;;;;7.39;33.08;99345.69;8348230;28;20531;-57
2022/02/28 19:06:43;;;;;;;18.53;11.17;;;;;;;7.38;32.73;99349.09;8348380;28;20258;-57
2022/02/28 19:10:46;;;;;;;16.93;11.40;;;;;;;6.85;33.18;99349.56;8347373;28;20231;-60
2022/02/28 19:14:50;;;;;;;17.37;12.10;;;;;;;6.56;33.57;99354.03;8347052;28;20642;-59
2022/02/28 19:18:53;;;;;;;17.10;11.40;;;;;;;7.20;32.85;99350.16;8346567;28;20232;-59
2022/02/28 19:22:57;;;;;;;18.83;12.63;;;;;;;7.19;32.49;99354.41;8347114;28;20232;-59
2022/02/28 19:27:00;;;;;;;19.30;12.03;;;;;;;6.64;33.10;99358.28;8346731;28;20243;-59